Terminal Aerodrome Forecast
Issued by NWS

Home | Current Version | Previous Version | Text Only | Print | Product List | Glossary On
Versions: 1 2 3 4 5 6 7 8 9 10 11 12 13
696
FTUS42 TJSJ 110541
TAFJPS
TAF
TJPS 110541Z 1106/1206 05005KT P6SM FEW030
     FM111500 13012KT P6SM FEW030 SCT060
     FM112330 09007KT P6SM FEW030
      AMD NOT SKED 1112/1203=

USA.gov is the U.S. government's official web portal to all federal, state and local government web resources and services.